createdAt,value
2022-12-12T00:00:43.162Z,-0.4
2022-12-12T00:01:50.265Z,-0.4
2022-12-12T00:02:57.490Z,-0.4
2022-12-12T00:04:04.521Z,-0.4
2022-12-12T00:05:11.565Z,-0.4
2022-12-12T00:06:18.151Z,-0.4
2022-12-12T00:07:25.349Z,-0.4
2022-12-12T00:09:39.511Z,-0.4
2022-12-12T00:10:46.611Z,-0.5
2022-12-12T00:11:53.170Z,-0.4
2022-12-12T00:13:00.352Z,-0.4
2022-12-12T00:14:07.393Z,-0.5
2022-12-12T00:15:14.857Z,-0.5
2022-12-12T00:16:21.203Z,-0.5
2022-12-12T00:17:28.304Z,-0.5
2022-12-12T00:18:35.426Z,-0.5
2022-12-12T00:19:42.437Z,-0.5
2022-12-12T00:20:49.533Z,-0.5
2022-12-12T00:21:56.115Z,-0.5
2022-12-12T00:23:03.195Z,-0.6
2022-12-12T00:24:10.426Z,-0.5
2022-12-12T00:25:17.405Z,-0.6
2022-12-12T00:26:24.036Z,-0.6
2022-12-12T00:27:31.159Z,-0.6
2022-12-12T00:28:38.225Z,-0.6
2022-12-12T00:29:45.416Z,-0.6
2022-12-12T00:30:52.457Z,-0.6
2022-12-12T00:31:59.521Z,-0.7
2022-12-12T00:34:13.344Z,-0.7
2022-12-12T00:35:20.405Z,-0.7
2022-12-12T00:36:27.411Z,-0.7
2022-12-12T00:37:34.543Z,-0.7
2022-12-12T00:38:41.131Z,-0.7
2022-12-12T00:39:48.229Z,-0.6
2022-12-12T00:40:55.425Z,-0.6
2022-12-12T00:42:02.461Z,-0.7
2022-12-12T00:43:09.514Z,-0.6
2022-12-12T00:44:16.167Z,-0.7
2022-12-12T00:45:23.265Z,-0.6
2022-12-12T00:46:30.380Z,-0.6
2022-12-12T00:47:37.415Z,-0.6
2022-12-12T00:48:44.578Z,-0.7
2022-12-12T00:50:58.301Z,-0.6
2022-12-12T00:52:05.408Z,-0.6
2022-12-12T00:53:12.466Z,-0.6
2022-12-12T00:54:19.561Z,-0.6
2022-12-12T00:55:26.630Z,-0.6
2022-12-12T00:56:33.308Z,-0.7
2022-12-12T00:57:40.380Z,-0.7
2022-12-12T00:59:54.603Z,-0.6
2022-12-12T01:01:01.152Z,-0.6
2022-12-12T01:02:08.335Z,-0.6
2022-12-12T01:03:15.433Z,-0.6
2022-12-12T01:04:22.473Z,-0.7
2022-12-12T01:05:29.563Z,-0.7
2022-12-12T01:06:36.216Z,-0.7
2022-12-12T01:07:43.286Z,-0.6
2022-12-12T01:08:50.390Z,-0.7
2022-12-12T01:09:57.993Z,-0.7
2022-12-12T01:11:04.591Z,-0.6
2022-12-12T01:12:11.217Z,-0.7
2022-12-12T01:13:18.263Z,-0.7
2022-12-12T01:14:25.394Z,-0.7
2022-12-12T01:15:32.521Z,-0.7
2022-12-12T01:16:39.633Z,-0.7
2022-12-12T01:17:46.210Z,-0.7
2022-12-12T01:18:53.334Z,-0.7
2022-12-12T01:20:00.396Z,-0.7
2022-12-12T01:21:07.468Z,-0.8
2022-12-12T01:22:14.605Z,-0.8
2022-12-12T01:23:21.180Z,-0.8
2022-12-12T01:24:28.261Z,-0.8
2022-12-12T01:25:35.401Z,-0.8
2022-12-12T01:26:42.576Z,-0.8
2022-12-12T01:27:49.598Z,-0.8
2022-12-12T01:28:56.205Z,-0.8
2022-12-12T01:30:03.305Z,-0.8
2022-12-12T01:32:17.553Z,-0.9
2022-12-12T01:33:24.603Z,-0.9
2022-12-12T01:34:31.234Z,-0.9
2022-12-12T01:35:38.296Z,-0.9
2022-12-12T01:36:45.413Z,-0.9
2022-12-12T01:37:52.524Z,-0.9
2022-12-12T01:38:59.627Z,-0.9
2022-12-12T01:40:06.211Z,-0.9
2022-12-12T01:41:13.308Z,-0.9
2022-12-12T01:42:20.485Z,-0.9
2022-12-12T01:43:27.505Z,-1
2022-12-12T01:44:34.631Z,-1
2022-12-12T01:45:41.217Z,-0.9
2022-12-12T01:46:48.448Z,-0.9
2022-12-12T01:47:57.309Z,-1
2022-12-12T01:49:02.001Z,-1
2022-12-12T01:50:09.654Z,-1
2022-12-12T01:51:16.364Z,-1
2022-12-12T01:52:23.340Z,-0.9
2022-12-12T01:53:30.412Z,-0.9
2022-12-12T01:54:37.504Z,-0.9
2022-12-12T01:55:47.182Z,-1
2022-12-12T01:56:51.225Z,-1
2022-12-12T01:57:58.327Z,-1
2022-12-12T01:59:05.451Z,-1
2022-12-12T02:00:12.545Z,-0.9
2022-12-12T02:03:33.416Z,-0.9
2022-12-12T02:04:40.475Z,-0.9
2022-12-12T02:05:47.574Z,-0.9
2022-12-12T02:06:54.716Z,-1
2022-12-12T02:08:01.313Z,-1
2022-12-12T02:09:08.352Z,-1
2022-12-12T02:10:15.482Z,-1
2022-12-12T02:11:22.560Z,-0.9
2022-12-12T02:13:36.221Z,-1
2022-12-12T02:14:43.366Z,-1
2022-12-12T02:15:50.605Z,-1
2022-12-12T02:16:57.626Z,-1
2022-12-12T02:18:05.952Z,-1
2022-12-12T02:19:11.244Z,-1
2022-12-12T02:20:18.350Z,-1
2022-12-12T02:21:25.533Z,-1
2022-12-12T02:22:32.568Z,-1
2022-12-12T02:23:39.658Z,-1.1
2022-12-12T02:24:46.272Z,-1.1
2022-12-12T02:25:53.378Z,-1.1
2022-12-12T02:27:00.508Z,-1.1
2022-12-12T02:28:07.547Z,-1.1
2022-12-12T02:29:14.734Z,-1.1
2022-12-12T02:30:21.242Z,-1.1
2022-12-12T02:31:28.491Z,-1.1
2022-12-12T02:32:35.525Z,-1.1
2022-12-12T02:33:42.593Z,-1.1
2022-12-12T02:34:49.667Z,-1.1
2022-12-12T02:35:56.305Z,-1.1
2022-12-12T02:37:03.430Z,-1.1
2022-12-12T02:38:11.130Z,-1.1
2022-12-12T02:39:17.566Z,-1.1
2022-12-12T02:40:24.170Z,-1.1
2022-12-12T02:41:31.428Z,-1.1
2022-12-12T02:42:38.394Z,-1.1
2022-12-12T02:43:45.524Z,-1.1
2022-12-12T02:44:52.623Z,-1.1
2022-12-12T02:45:59.221Z,-1.1
2022-12-12T02:47:06.297Z,-1.1
2022-12-12T02:48:13.437Z,-1.1
2022-12-12T02:49:20.536Z,-1.1
2022-12-12T02:50:27.584Z,-1.1
2022-12-12T02:51:34.788Z,-1
2022-12-12T02:52:41.307Z,-1
2022-12-12T02:54:55.554Z,-1
2022-12-12T02:56:02.616Z,-1
2022-12-12T02:57:09.229Z,-1
2022-12-12T02:58:16.324Z,-1
2022-12-12T02:59:23.383Z,-1
2022-12-12T03:00:30.566Z,-1
2022-12-12T03:01:37.715Z,-1
2022-12-12T03:02:44.216Z,-1
2022-12-12T03:03:51.289Z,-1
2022-12-12T03:04:58.396Z,-1
2022-12-12T03:07:12.620Z,-1
2022-12-12T03:08:19.341Z,-1
2022-12-12T03:09:26.383Z,-0.9
2022-12-12T03:10:33.462Z,-1
2022-12-12T03:11:40.061Z,-0.9
2022-12-12T03:12:47.617Z,-1
2022-12-12T03:13:54.715Z,-1
2022-12-12T03:15:01.374Z,-0.9
2022-12-12T03:16:08.448Z,-1
2022-12-12T03:17:15.652Z,-1
2022-12-12T03:18:22.634Z,-1
2022-12-12T03:19:29.225Z,-1
2022-12-12T03:20:36.344Z,-1
2022-12-12T03:21:43.439Z,-0.9
2022-12-12T03:22:50.572Z,-1
2022-12-12T03:23:57.632Z,-1
2022-12-12T03:25:04.273Z,-1
2022-12-12T03:26:11.347Z,-0.9
2022-12-12T03:27:18.520Z,-1
2022-12-12T03:28:25.587Z,-1
2022-12-12T03:30:39.244Z,-1
2022-12-12T03:31:46.558Z,-1
2022-12-12T03:32:53.447Z,-1.1
2022-12-12T03:34:00.562Z,-1.1
2022-12-12T03:35:07.687Z,-1.1
2022-12-12T03:36:14.814Z,-1.1
2022-12-12T03:37:21.418Z,-1.1
2022-12-12T03:38:28.436Z,-1.1
2022-12-12T03:39:35.576Z,-1.2
2022-12-12T03:40:42.705Z,-1.1
2022-12-12T03:41:49.312Z,-1.2
2022-12-12T03:42:56.402Z,-1.2
2022-12-12T03:44:03.445Z,-1.2
2022-12-12T03:45:11.004Z,-1.2
2022-12-12T03:46:17.748Z,-1.2
2022-12-12T03:47:24.395Z,-1.2
2022-12-12T03:48:31.381Z,-1.2
2022-12-12T03:49:38.483Z,-1.2
2022-12-12T03:50:45.618Z,-1.3
2022-12-12T03:51:52.812Z,-1.3
2022-12-12T03:52:59.266Z,-1.3
2022-12-12T03:54:06.386Z,-1.3
2022-12-12T03:55:14.207Z,-1.3
2022-12-12T03:56:20.604Z,-1.3
2022-12-12T03:57:27.699Z,-1.3
2022-12-12T03:58:34.815Z,-1.2
2022-12-12T03:59:41.423Z,-1.3
2022-12-12T04:00:48.509Z,-1.3
2022-12-12T04:01:55.692Z,-1.3
2022-12-12T04:03:02.741Z,-1.3
2022-12-12T04:04:09.293Z,-1.3
2022-12-12T04:05:16.430Z,-1.3
2022-12-12T04:06:24.095Z,-1.3
2022-12-12T04:07:30.705Z,-1.2
2022-12-12T04:08:37.910Z,-1.2
2022-12-12T04:10:51.420Z,-1.3
2022-12-12T04:11:58.597Z,-1.3
2022-12-12T04:13:05.630Z,-1.3
2022-12-12T04:14:12.758Z,-1.3
2022-12-12T04:15:19.288Z,-1.3
2022-12-12T04:16:26.481Z,-1.3
2022-12-12T04:17:33.564Z,-1.3
2022-12-12T04:18:40.635Z,-1.3
2022-12-12T04:19:47.836Z,-1.3
2022-12-12T04:20:54.352Z,-1.3
2022-12-12T04:22:01.504Z,-1.3
2022-12-12T04:23:08.514Z,-1.3
2022-12-12T04:24:15.662Z,-1.3
2022-12-12T04:25:22.765Z,-1.3
2022-12-12T04:26:29.353Z,-1.3
2022-12-12T04:27:36.455Z,-1.3
2022-12-12T04:28:44.087Z,-1.3
2022-12-12T04:29:50.655Z,-1.3
2022-12-12T04:30:57.764Z,-1.3
2022-12-12T04:32:04.428Z,-1.3
2022-12-12T04:33:11.462Z,-1.3
2022-12-12T04:35:25.649Z,-1.3
2022-12-12T04:36:32.798Z,-1.3
2022-12-12T04:37:39.337Z,-1.3
2022-12-12T04:38:46.476Z,-1.3
2022-12-12T04:39:53.574Z,-1.3
2022-12-12T04:41:00.640Z,-1.3
2022-12-12T04:42:07.924Z,-1.4
2022-12-12T04:43:14.354Z,-1.4
2022-12-12T04:44:21.460Z,-1.4
2022-12-12T04:45:28.656Z,-1.4
2022-12-12T04:46:35.673Z,-1.4
2022-12-12T04:47:42.793Z,-1.4
2022-12-12T04:48:51.848Z,-1.4
2022-12-12T04:49:56.481Z,-1.5
2022-12-12T04:51:03.564Z,-1.5
2022-12-12T04:52:10.774Z,-1.5
2022-12-12T04:53:18.757Z,-1.5
2022-12-12T04:54:24.384Z,-1.5
2022-12-12T04:55:31.481Z,-1.5
2022-12-12T04:56:38.620Z,-1.5
2022-12-12T04:57:45.713Z,-1.5
2022-12-12T04:58:52.796Z,-1.5
2022-12-12T04:59:59.357Z,-1.6
2022-12-12T05:01:06.529Z,-1.6
2022-12-12T05:02:13.739Z,-1.5
2022-12-12T05:03:20.693Z,-1.6
2022-12-12T05:04:27.261Z,-1.6
2022-12-12T05:05:34.373Z,-1.6
2022-12-12T05:06:41.517Z,-1.6
2022-12-12T05:07:48.651Z,-1.6
2022-12-12T05:08:55.721Z,-1.6
2022-12-12T05:10:02.796Z,-1.5
2022-12-12T05:11:09.352Z,-1.5
2022-12-12T05:12:16.565Z,-1.6
2022-12-12T05:14:30.711Z,-1.6
2022-12-12T05:15:41.784Z,-1.6
2022-12-12T05:16:44.546Z,-1.6
2022-12-12T05:17:51.503Z,-1.7
2022-12-12T05:18:58.673Z,-1.7
2022-12-12T05:20:05.718Z,-1.7
2022-12-12T05:21:12.835Z,-1.7
2022-12-12T05:22:19.520Z,-1.7
2022-12-12T05:23:30.204Z,-1.7
2022-12-12T05:24:33.610Z,-1.7
2022-12-12T05:25:40.757Z,-1.7
2022-12-12T05:26:47.824Z,-1.7
2022-12-12T05:27:54.495Z,-1.7
2022-12-12T05:29:06.926Z,-1.7
2022-12-12T05:30:08.712Z,-1.7
2022-12-12T05:31:15.807Z,-1.7
2022-12-12T05:32:23.364Z,-1.7
2022-12-12T05:33:29.485Z,-1.7
2022-12-12T05:34:37.025Z,-1.7
2022-12-12T05:35:43.651Z,-1.7
2022-12-12T05:36:50.774Z,-1.8
2022-12-12T05:37:57.374Z,-1.8
2022-12-12T05:39:04.526Z,-1.8
2022-12-12T05:40:11.564Z,-1.8
2022-12-12T05:41:18.632Z,-1.8
2022-12-12T05:42:25.750Z,-1.8
2022-12-12T05:43:32.340Z,-1.9
2022-12-12T05:44:39.473Z,-1.9
2022-12-12T05:45:47.535Z,-1.9
2022-12-12T05:46:53.665Z,-1.8
2022-12-12T05:48:00.743Z,-1.9
2022-12-12T05:49:07.325Z,-1.9
2022-12-12T05:50:14.511Z,-1.9
2022-12-12T05:51:21.582Z,-1.9
2022-12-12T05:52:28.646Z,-1.9
2022-12-12T05:53:42.527Z,-1.9
2022-12-12T05:54:42.860Z,-1.9
2022-12-12T05:55:49.606Z,-1.9
2022-12-12T05:56:56.061Z,-1.9
2022-12-12T05:58:03.661Z,-1.9
2022-12-12T05:59:10.782Z,-1.9
2022-12-12T06:00:17.317Z,-1.9
2022-12-12T06:01:24.538Z,-1.9
2022-12-12T06:02:31.635Z,-1.9
2022-12-12T06:03:38.758Z,-1.9
2022-12-12T06:04:45.769Z,-1.9
2022-12-12T06:05:52.380Z,-1.9
2022-12-12T06:06:59.445Z,-1.9
2022-12-12T06:08:06.682Z,-1.9
2022-12-12T06:09:13.773Z,-1.9
2022-12-12T06:10:20.821Z,-1.9
2022-12-12T06:11:27.339Z,-1.9
2022-12-12T06:12:34.540Z,-2
2022-12-12T06:13:41.613Z,-2
2022-12-12T06:14:48.650Z,-1.9
2022-12-12T06:15:55.920Z,-1.9
2022-12-12T06:18:09.510Z,-1.9
2022-12-12T06:19:16.603Z,-1.9
2022-12-12T06:20:23.714Z,-1.9
2022-12-12T06:21:30.775Z,-1.9
2022-12-12T06:22:37.366Z,-1.9
2022-12-12T06:23:44.491Z,-1.9
2022-12-12T06:24:51.673Z,-1.9
2022-12-12T06:27:05.886Z,-1.9
2022-12-12T06:28:12.389Z,-1.9
2022-12-12T06:29:19.485Z,-1.8
2022-12-12T06:30:26.603Z,-1.8
2022-12-12T06:31:33.820Z,-1.8
2022-12-12T06:32:40.796Z,-1.8
2022-12-12T06:33:47.365Z,-1.8
2022-12-12T06:34:54.513Z,-1.8
2022-12-12T06:36:02.163Z,-1.8
2022-12-12T06:37:11.761Z,-1.8
2022-12-12T06:38:15.303Z,-1.8
2022-12-12T06:39:22.924Z,-1.8
2022-12-12T06:40:29.574Z,-1.8
2022-12-12T06:41:36.644Z,-1.8
2022-12-12T06:42:48.301Z,-1.8
2022-12-12T06:43:50.922Z,-1.8
2022-12-12T06:44:57.381Z,-1.8
2022-12-12T06:46:04.593Z,-1.8
2022-12-12T06:47:11.652Z,-1.8
2022-12-12T06:48:18.697Z,-1.8
2022-12-12T06:49:25.856Z,-1.9
2022-12-12T06:50:32.453Z,-1.9
2022-12-12T06:51:39.583Z,-1.9
2022-12-12T06:52:46.623Z,-1.8
2022-12-12T06:53:53.737Z,-1.9
2022-12-12T06:55:01.106Z,-1.8
2022-12-12T06:56:07.728Z,-1.9
2022-12-12T06:57:14.632Z,-1.9
2022-12-12T06:58:21.662Z,-1.9
2022-12-12T06:59:28.732Z,-1.8
2022-12-12T07:00:35.884Z,-1.8
2022-12-12T07:01:42.511Z,-1.8
2022-12-12T07:02:50.096Z,-1.9
2022-12-12T07:03:56.623Z,-1.9
2022-12-12T07:05:03.753Z,-1.9
2022-12-12T07:06:10.863Z,-1.8
2022-12-12T07:07:17.483Z,-1.8
2022-12-12T07:08:24.613Z,-1.8
2022-12-12T07:09:31.692Z,-1.8
2022-12-12T07:10:38.752Z,-1.8
2022-12-12T07:11:45.931Z,-1.8
2022-12-12T07:12:57.224Z,-1.8
2022-12-12T07:13:59.551Z,-1.7
2022-12-12T07:15:06.644Z,-1.7
2022-12-12T07:16:13.910Z,-1.7
2022-12-12T07:17:20.885Z,-1.7
2022-12-12T07:18:27.473Z,-1.7
2022-12-12T07:21:48.819Z,-1.8
2022-12-12T07:22:55.913Z,-1.8
2022-12-12T07:24:02.461Z,-1.8
2022-12-12T07:25:09.564Z,-1.8
2022-12-12T07:26:16.647Z,-1.8
2022-12-12T07:27:23.836Z,-1.8
2022-12-12T07:28:30.895Z,-1.8
2022-12-12T07:29:37.437Z,-1.8
2022-12-12T07:30:44.692Z,-1.8
2022-12-12T07:31:51.732Z,-1.8
2022-12-12T07:32:58.763Z,-1.8
2022-12-12T07:34:05.902Z,-1.8
2022-12-12T07:35:12.641Z,-1.8
2022-12-12T07:36:19.580Z,-1.8
2022-12-12T07:37:26.755Z,-1.8
2022-12-12T07:38:33.830Z,-1.8
2022-12-12T07:39:41.426Z,-1.8
2022-12-12T07:40:47.474Z,-1.7
2022-12-12T07:41:54.637Z,-1.7
2022-12-12T07:43:01.723Z,-1.7
2022-12-12T07:44:08.786Z,-1.7
2022-12-12T07:45:18.406Z,-1.7
2022-12-12T07:46:22.625Z,-1.7
2022-12-12T07:47:29.654Z,-1.7
2022-12-12T07:48:36.702Z,-1.6
2022-12-12T07:49:43.826Z,-1.6
2022-12-12T07:50:50.962Z,-1.6
2022-12-12T07:51:57.536Z,-1.6
2022-12-12T07:53:04.622Z,-1.6
2022-12-12T07:55:18.834Z,-1.6
2022-12-12T07:56:25.941Z,-1.6
2022-12-12T07:57:32.515Z,-1.6
2022-12-12T07:58:39.585Z,-1.6
2022-12-12T07:59:46.704Z,-1.6
2022-12-12T08:02:01.015Z,-1.6
2022-12-12T08:03:07.484Z,-1.6
2022-12-12T08:04:14.624Z,-1.6
2022-12-12T08:05:21.734Z,-1.5
2022-12-12T08:06:28.838Z,-1.6
2022-12-12T08:07:35.999Z,-1.6
2022-12-12T08:08:42.582Z,-1.5
2022-12-12T08:09:49.648Z,-1.6
2022-12-12T08:10:56.708Z,-1.6
2022-12-12T08:12:03.906Z,-1.6
2022-12-12T08:13:10.424Z,-1.6
2022-12-12T08:14:17.513Z,-1.6
2022-12-12T08:15:24.635Z,-1.6
2022-12-12T08:16:31.811Z,-1.6
2022-12-12T08:17:38.885Z,-1.6
2022-12-12T08:18:45.465Z,-1.5
2022-12-12T08:19:52.539Z,-1.6
2022-12-12T08:20:59.633Z,-1.6
2022-12-12T08:22:06.803Z,-1.6
2022-12-12T08:23:13.876Z,-1.6
2022-12-12T08:24:20.465Z,-1.6
2022-12-12T08:25:27.553Z,-1.6
2022-12-12T08:26:34.644Z,-1.6
2022-12-12T08:27:41.826Z,-1.6
2022-12-12T08:28:48.833Z,-1.6
2022-12-12T08:29:55.483Z,-1.6
2022-12-12T08:31:03.158Z,-1.6
2022-12-12T08:32:09.725Z,-1.6
2022-12-12T08:33:16.745Z,-1.7
2022-12-12T08:34:24.131Z,-1.7
2022-12-12T08:35:31.013Z,-1.7
2022-12-12T08:36:37.557Z,-1.8
2022-12-12T08:37:44.681Z,-1.8
2022-12-12T08:38:51.770Z,-1.8
2022-12-12T08:39:58.865Z,-1.8
2022-12-12T08:41:05.495Z,-1.8
2022-12-12T08:43:20.253Z,-1.8
2022-12-12T08:44:26.776Z,-1.8
2022-12-12T08:45:33.893Z,-1.7
2022-12-12T08:46:41.126Z,-1.7
2022-12-12T08:47:47.575Z,-1.7
2022-12-12T08:48:54.694Z,-1.7
2022-12-12T08:50:01.791Z,-1.7
2022-12-12T08:51:08.866Z,-1.6
2022-12-12T08:52:15.574Z,-1.6
2022-12-12T08:53:22.607Z,-1.6
2022-12-12T08:54:29.718Z,-1.6
2022-12-12T08:55:36.797Z,-1.6
2022-12-12T08:56:43.894Z,-1.6
2022-12-12T08:57:50.572Z,-1.6
2022-12-12T08:58:57.616Z,-1.6
2022-12-12T09:00:04.733Z,-1.6
2022-12-12T09:01:11.835Z,-1.6
2022-12-12T09:02:19.129Z,-1.5
2022-12-12T09:03:29.476Z,-1.5
2022-12-12T09:04:32.631Z,-1.4
2022-12-12T09:05:39.696Z,-1.4
2022-12-12T09:06:46.896Z,-1.4
2022-12-12T09:07:53.989Z,-1.3
2022-12-12T09:09:00.502Z,-1.3
2022-12-12T09:10:07.671Z,-1.3
2022-12-12T09:11:14.735Z,-1.3
2022-12-12T09:12:21.917Z,-1.3
2022-12-12T09:13:28.933Z,-1.2
2022-12-12T09:14:35.531Z,-1.3
2022-12-12T09:15:42.626Z,-1.2
2022-12-12T09:16:49.726Z,-1.3
2022-12-12T09:17:56.791Z,-1.2
2022-12-12T09:19:03.935Z,-1.3
2022-12-12T09:20:10.575Z,-1.2
2022-12-12T09:21:17.670Z,-1.3
2022-12-12T09:24:39.012Z,-1.2
2022-12-12T09:25:47.492Z,-1.3
2022-12-12T09:26:52.823Z,-1.3
2022-12-12T09:29:06.811Z,-1.3
2022-12-12T09:30:13.985Z,-1.3
2022-12-12T09:31:20.694Z,-1.3
2022-12-12T09:32:27.673Z,-1.4
2022-12-12T09:33:34.717Z,-1.4
2022-12-12T09:34:41.872Z,-1.4
2022-12-12T09:35:48.973Z,-1.4
2022-12-12T09:36:55.612Z,-1.4
2022-12-12T09:38:02.722Z,-1.4
2022-12-12T09:39:09.738Z,-1.4
2022-12-12T09:40:16.863Z,-1.5
2022-12-12T09:41:24.028Z,-1.5
2022-12-12T09:42:30.643Z,-1.5
2022-12-12T09:43:38.388Z,-1.5
2022-12-12T09:44:44.831Z,-1.5
2022-12-12T09:45:52.088Z,-1.5
2022-12-12T09:46:58.947Z,-1.5
2022-12-12T09:48:05.666Z,-1.5
2022-12-12T09:49:12.753Z,-1.5
2022-12-12T09:50:19.806Z,-1.5
2022-12-12T09:51:26.880Z,-1.6
2022-12-12T09:52:33.972Z,-1.5
2022-12-12T09:53:40.741Z,-1.5
2022-12-12T09:54:47.647Z,-1.5
2022-12-12T09:55:54.765Z,-1.5
2022-12-12T09:57:01.925Z,-1.5
2022-12-12T09:58:09.083Z,-1.4
2022-12-12T09:59:16.269Z,-1.4
2022-12-12T10:00:22.809Z,-1.4
2022-12-12T10:01:29.750Z,-1.4
2022-12-12T10:02:36.933Z,-1.4
2022-12-12T10:03:44.040Z,-1.3
2022-12-12T10:06:20.506Z,-1.3
2022-12-12T10:07:04.755Z,-1.3
2022-12-12T10:08:12.017Z,-1.3
2022-12-12T10:09:18.972Z,-1.2
2022-12-12T10:10:25.627Z,-1.2
2022-12-12T10:11:32.793Z,-1.3
2022-12-12T10:12:39.767Z,-1.3
2022-12-12T10:13:46.936Z,-1.2
2022-12-12T10:14:54.018Z,-1.3
2022-12-12T10:16:00.726Z,-1.2
2022-12-12T10:17:07.731Z,-1.2
2022-12-12T10:18:14.807Z,-1.2
2022-12-12T10:19:21.907Z,-1.2
2022-12-12T10:20:29.056Z,-1.2
2022-12-12T10:21:35.663Z,-1.3
2022-12-12T10:22:42.832Z,-1.3
2022-12-12T10:23:49.778Z,-1.2
2022-12-12T10:24:56.935Z,-1.2
2022-12-12T10:26:04.081Z,-1.2
2022-12-12T10:27:10.794Z,-1.2
2022-12-12T10:28:17.746Z,-1.2
2022-12-12T10:29:24.850Z,-1.2
2022-12-12T10:30:31.932Z,-1.2
2022-12-12T10:32:45.634Z,-1.3
2022-12-12T10:33:52.739Z,-1.2
2022-12-12T10:34:59.821Z,-1.3
2022-12-12T10:36:06.962Z,-1.3
2022-12-12T10:37:14.115Z,-1.3
2022-12-12T10:38:20.642Z,-1.2
2022-12-12T10:39:27.715Z,-1.2
2022-12-12T10:40:34.861Z,-1.2
2022-12-12T10:41:41.984Z,-1.2
2022-12-12T10:42:49.124Z,-1.2
2022-12-12T10:43:55.606Z,-1.3
2022-12-12T10:45:02.712Z,-1.2
2022-12-12T10:47:17.018Z,-1.2
2022-12-12T10:48:24.078Z,-1.2
2022-12-12T10:49:30.645Z,-1.2
2022-12-12T10:50:38.242Z,-1.2
2022-12-12T10:51:44.848Z,-1.2
2022-12-12T10:52:52.000Z,-1.2
2022-12-12T10:53:59.134Z,-1.2
2022-12-12T10:55:05.684Z,-1.2
2022-12-12T10:56:12.757Z,-1.2
2022-12-12T10:57:20.624Z,-1.2
2022-12-12T10:58:26.952Z,-1.2
2022-12-12T10:59:34.118Z,-1.2
2022-12-12T11:00:40.720Z,-1.2
2022-12-12T11:02:09.730Z,-1.2
2022-12-12T11:02:59.780Z,-1.2
2022-12-12T11:04:01.991Z,-1.2
2022-12-12T11:05:09.049Z,-1.2
2022-12-12T11:06:15.667Z,-1.2
2022-12-12T11:07:22.884Z,-1.2
2022-12-12T11:08:29.959Z,-1.2
2022-12-12T11:09:36.985Z,-1.2
2022-12-12T11:10:44.080Z,-1.2
2022-12-12T11:11:50.849Z,-1.2
2022-12-12T11:12:57.755Z,-1.2
2022-12-12T11:14:04.877Z,-1.2
2022-12-12T11:15:12.288Z,-1.2
2022-12-12T11:16:19.181Z,-1.2
2022-12-12T11:17:25.743Z,-1.2
2022-12-12T11:18:32.785Z,-1.2
2022-12-12T11:19:39.877Z,-1.2
2022-12-12T11:20:46.984Z,-1.2
2022-12-12T11:21:54.137Z,-1.2
2022-12-12T11:23:00.756Z,-1.2
2022-12-12T11:24:07.814Z,-1.2
2022-12-12T11:25:15.818Z,-1.2
2022-12-12T11:26:23.640Z,-1.1
2022-12-12T11:28:35.842Z,-1.1
2022-12-12T11:29:42.813Z,-1.1
2022-12-12T11:30:49.908Z,-1.1
2022-12-12T11:31:57.100Z,-1.1
2022-12-12T11:33:05.925Z,-1
2022-12-12T11:34:10.773Z,-1
2022-12-12T11:35:17.825Z,-1
2022-12-12T11:36:24.925Z,-1
2022-12-12T11:37:32.094Z,-1
2022-12-12T11:38:39.123Z,-1
2022-12-12T11:39:45.757Z,-1
2022-12-12T11:40:52.886Z,-1
2022-12-12T11:42:00.074Z,-1
2022-12-12T11:43:07.069Z,-1
2022-12-12T11:44:19.954Z,-1
2022-12-12T11:45:20.758Z,-1
2022-12-12T11:46:27.804Z,-1
2022-12-12T11:47:35.782Z,-0.9
2022-12-12T11:48:42.097Z,-0.9
2022-12-12T11:49:49.557Z,-0.9
2022-12-12T11:50:55.733Z,-0.9
2022-12-12T11:52:05.994Z,-0.9
2022-12-12T11:53:10.033Z,-0.9
2022-12-12T11:55:24.131Z,-0.9
2022-12-12T11:56:30.770Z,-0.9
2022-12-12T11:57:38.584Z,-0.9
2022-12-12T11:58:44.952Z,-0.9
2022-12-12T11:59:52.046Z,-1
2022-12-12T12:00:59.129Z,-0.9
2022-12-12T12:02:05.880Z,-0.9
2022-12-12T12:03:13.016Z,-0.9
2022-12-12T12:04:29.763Z,-0.9
2022-12-12T12:05:27.096Z,-0.9
2022-12-12T12:06:35.456Z,-0.9
2022-12-12T12:07:42.682Z,-0.9
2022-12-12T12:09:55.122Z,-0.9
2022-12-12T12:11:02.177Z,-0.9
2022-12-12T12:12:09.751Z,-0.9
2022-12-12T12:13:15.779Z,-1
2022-12-12T12:14:22.887Z,-0.9
2022-12-12T12:15:29.958Z,-0.9
2022-12-12T12:16:37.076Z,-1
2022-12-12T12:17:43.705Z,-1
2022-12-12T12:18:50.740Z,-1
2022-12-12T12:19:57.862Z,-1
2022-12-12T12:21:05.013Z,-1
2022-12-12T12:22:12.181Z,-0.9
2022-12-12T12:23:18.681Z,-1
2022-12-12T12:24:25.808Z,-0.9
2022-12-12T12:25:32.882Z,-1
2022-12-12T12:26:40.645Z,-0.9
2022-12-12T12:27:47.106Z,-0.9
2022-12-12T12:28:54.328Z,-0.9
2022-12-12T12:30:00.765Z,-0.9
2022-12-12T12:31:07.951Z,-1
2022-12-12T12:32:15.056Z,-0.9
2022-12-12T12:33:22.347Z,-0.9
2022-12-12T12:34:28.647Z,-0.9
2022-12-12T12:35:35.815Z,-1
2022-12-12T12:36:43.692Z,-1
2022-12-12T12:37:50.205Z,-0.9
2022-12-12T12:38:57.105Z,-0.9
2022-12-12T12:40:03.718Z,-0.9
2022-12-12T12:41:10.898Z,-0.9
2022-12-12T12:42:18.005Z,-0.9
2022-12-12T12:43:25.263Z,-0.9
2022-12-12T12:44:32.193Z,-0.9
2022-12-12T12:45:38.658Z,-0.9
2022-12-12T12:46:45.804Z,-0.8
2022-12-12T12:47:54.166Z,-0.9
2022-12-12T12:49:00.004Z,-0.8
2022-12-12T12:51:14.233Z,-0.8
2022-12-12T12:52:20.875Z,-0.8
2022-12-12T12:53:27.910Z,-0.8
2022-12-12T12:54:35.040Z,-0.8
2022-12-12T12:56:48.723Z,-0.8
2022-12-12T12:59:03.025Z,-0.8
2022-12-12T13:00:10.048Z,-0.8
2022-12-12T13:01:17.147Z,-0.8
2022-12-12T13:02:27.048Z,-0.8
2022-12-12T13:03:30.835Z,-0.9
2022-12-12T13:04:37.907Z,-0.9
2022-12-12T13:05:47.536Z,-0.9
2022-12-12T13:06:52.110Z,-0.9
2022-12-12T13:07:58.855Z,-0.9
2022-12-12T13:09:05.849Z,-0.9
2022-12-12T13:10:13.523Z,-0.9
2022-12-12T13:11:20.032Z,-0.9
2022-12-12T13:12:27.200Z,-0.9
2022-12-12T13:13:34.270Z,-0.9
2022-12-12T13:14:40.846Z,-0.9
2022-12-12T13:15:47.986Z,-1
2022-12-12T13:16:55.102Z,-1
2022-12-12T13:18:02.156Z,-1
2022-12-12T13:19:08.717Z,-0.9
2022-12-12T13:20:16.881Z,-1
2022-12-12T13:21:22.949Z,-1
2022-12-12T13:22:30.056Z,-1
2022-12-12T13:23:37.134Z,-1
2022-12-12T13:24:43.741Z,-1
2022-12-12T13:25:50.886Z,-1
2022-12-12T13:26:58.002Z,-1
2022-12-12T13:28:05.114Z,-1
2022-12-12T13:29:12.325Z,-1.1
2022-12-12T13:30:18.743Z,-1.1
2022-12-12T13:32:33.051Z,-1.2
2022-12-12T13:33:40.040Z,-1.2
2022-12-12T13:34:47.180Z,-1.2
2022-12-12T13:35:53.795Z,-1.2
2022-12-12T13:37:00.927Z,-1.2
2022-12-12T13:38:07.934Z,-1.2
2022-12-12T13:39:15.101Z,-1.2
2022-12-12T13:40:22.175Z,-1.2
2022-12-12T13:41:28.755Z,-1.2
2022-12-12T13:42:35.908Z,-1.2
2022-12-12T13:43:42.982Z,-1.2
2022-12-12T13:44:50.081Z,-1.2
2022-12-12T13:45:57.232Z,-1.2
2022-12-12T13:47:03.847Z,-1.2
2022-12-12T13:48:10.910Z,-1.2
2022-12-12T13:49:17.985Z,-1.2
2022-12-12T13:50:25.119Z,-1.2
2022-12-12T13:51:32.275Z,-1.2
2022-12-12T13:52:38.844Z,-1.2
2022-12-12T13:53:45.915Z,-1.2
2022-12-12T13:54:53.107Z,-1.2
2022-12-12T13:56:00.115Z,-1.2
2022-12-12T13:57:07.173Z,-1.2
2022-12-12T13:58:13.756Z,-1.2
2022-12-12T13:59:20.892Z,-1.2
2022-12-12T14:00:27.993Z,-1.2
2022-12-12T14:02:42.313Z,-1.2
2022-12-12T14:03:48.786Z,-1.2
2022-12-12T14:04:55.906Z,-1.2
2022-12-12T14:06:03.180Z,-1.2
2022-12-12T14:07:10.144Z,-1.2
2022-12-12T14:08:17.267Z,-1.2
2022-12-12T14:09:41.185Z,-1.2
2022-12-12T14:10:30.916Z,-1.2
2022-12-12T14:11:38.035Z,-1.3
2022-12-12T14:13:52.288Z,-1.2
2022-12-12T14:14:58.794Z,-1.3
2022-12-12T14:16:06.042Z,-1.3
2022-12-12T14:17:13.118Z,-1.2
2022-12-12T14:18:20.097Z,-1.2
2022-12-12T14:19:27.226Z,-1.2
2022-12-12T14:20:33.819Z,-1.2
2022-12-12T14:21:40.942Z,-1.2
2022-12-12T14:22:48.093Z,-1.3
2022-12-12T14:25:02.262Z,-1.3
2022-12-12T14:26:08.816Z,-1.3
2022-12-12T14:27:16.059Z,-1.3
2022-12-12T14:28:23.037Z,-1.3
2022-12-12T14:29:30.112Z,-1.3
2022-12-12T14:30:37.224Z,-1.3
2022-12-12T14:31:44.039Z,-1.3
2022-12-12T14:32:50.963Z,-1.3
2022-12-12T14:33:58.015Z,-1.3
2022-12-12T14:35:05.193Z,-1.3
2022-12-12T14:36:12.303Z,-1.3
2022-12-12T14:37:18.876Z,-1.3
2022-12-12T14:38:27.766Z,-1.3
2022-12-12T14:39:33.053Z,-1.4
2022-12-12T14:40:40.143Z,-1.4
2022-12-12T14:41:46.725Z,-1.4
2022-12-12T14:43:20.357Z,-1.4
2022-12-12T14:44:36.121Z,-1.4
2022-12-12T14:45:08.048Z,-1.4
2022-12-12T14:46:15.175Z,-1.4
2022-12-12T14:47:22.354Z,-1.4
2022-12-12T14:48:28.865Z,-1.4
2022-12-12T14:49:35.967Z,-1.4
2022-12-12T14:50:43.077Z,-1.4
2022-12-12T14:51:50.182Z,-1.5
2022-12-12T14:52:56.733Z,-1.4
2022-12-12T14:55:10.995Z,-1.5
2022-12-12T14:56:18.084Z,-1.5
2022-12-12T14:57:25.277Z,-1.5
2022-12-12T14:58:31.793Z,-1.4
2022-12-12T14:59:38.838Z,-1.4
2022-12-12T15:00:45.998Z,-1.4
2022-12-12T15:01:53.080Z,-1.4
2022-12-12T15:03:00.502Z,-1.4
2022-12-12T15:04:06.891Z,-1.4
2022-12-12T15:06:21.073Z,-1.4
2022-12-12T15:07:28.155Z,-1.4
2022-12-12T15:08:35.200Z,-1.4
2022-12-12T15:09:42.325Z,-1.4
2022-12-12T15:10:49.063Z,-1.4
2022-12-12T15:11:56.032Z,-1.4
2022-12-12T15:13:03.126Z,-1.4
2022-12-12T15:14:10.193Z,-1.4
2022-12-12T15:15:16.810Z,-1.5
2022-12-12T15:16:24.054Z,-1.5
2022-12-12T15:17:31.124Z,-1.5
2022-12-12T15:18:38.187Z,-1.5
2022-12-12T15:19:45.258Z,-1.5
2022-12-12T15:20:51.801Z,-1.5
2022-12-12T15:21:58.895Z,-1.5
2022-12-12T15:23:06.085Z,-1.6
2022-12-12T15:24:13.121Z,-1.5
2022-12-12T15:25:20.223Z,-1.5
2022-12-12T15:26:26.782Z,-1.6
2022-12-12T15:27:33.979Z,-1.6
2022-12-12T15:28:41.339Z,-1.6
2022-12-12T15:29:48.100Z,-1.6
2022-12-12T15:30:55.379Z,-1.6
2022-12-12T15:32:02.516Z,-1.6
2022-12-12T15:33:08.930Z,-1.7
2022-12-12T15:34:16.017Z,-1.7
2022-12-12T15:36:30.224Z,-1.7
2022-12-12T15:37:36.856Z,-1.7
2022-12-12T15:38:43.958Z,-1.7
2022-12-12T15:39:51.058Z,-1.7
2022-12-12T15:40:58.105Z,-1.7
2022-12-12T15:42:05.397Z,-1.7
2022-12-12T15:43:11.855Z,-1.7